Flight Track Log - Related Links

Times and Time Zones

All times are in EDT time to prevent confusion due to time zone crossing. See the ASQ6151 flight status page for this flight to view local times or setup timezone preferences in your user account.

Time Position Orientation Groundspeed Altitude Reporting Facility
EDT Latitude Longitude Course Direction KTS MPH feet Rate Location/Type
Wed 10:26:00 PM 41.9667 -88.5467 270° West  Level FlightAware Approximate
Wed 10:27:00 PM 41.9667 -88.6761 270° West  Level FlightAware Approximate
Wed 10:28:00 PM 41.9667 -88.8054 270° West  Level FlightAware Approximate
Wed 10:29:00 PM 41.9260 -88.9073 217° Southwest  Level FlightAware Approximate
Wed 10:30:00 PM 41.8473 -88.9814 213° Southwest  Level FlightAware Approximate
Wed 10:31:00 PM 41.7665 -89.0515 213° Southwest  Level FlightAware Approximate
Wed 10:32:00 PM 41.6858 -89.1214 213° Southwest  Level FlightAware Approximate
Wed 10:33:00 PM 41.6047 -89.1906 212° Southwest  Level FlightAware Approximate
Wed 10:34:00 PM 41.5236 -89.2597 217° Southwest  Level FlightAware Approximate
Wed 10:35:00 PM 41.4431 -89.3298 213° Southwest  Level FlightAware Approximate
Wed 10:36:00 PM 41.3625 -89.3996 210° Southwest  Level FlightAware Approximate
Wed 10:37:00 PM 41.2794 -89.4642 210° Southwest  Level FlightAware Approximate
Wed 10:38:00 PM 41.1992 -89.5342 217° Southwest  Level FlightAware Approximate
Wed 10:39:00 PM 41.1155 -89.5883 186° South  Level FlightAware Approximate
Wed 10:40:00 PM 41.0226 -89.6108 217° Southwest  Level FlightAware Approximate
Wed 10:41:00 PM 40.9283 -89.6277 185° South  Level FlightAware Approximate
Wed 10:42:00 PM 40.8338 -89.6498 194° South  Level FlightAware Approximate
Wed 10:43:00 PM 40.7384 -89.6623 189° South  Level FlightAware Approximate
Wed 10:44:00 PM 40.6642 -89.6933 191° South  Level Estimated
Wed 10:45:00 PM 40.6642 -89.6933 191° South  Level Estimated
Wed 10:46:00 PM 40.6642 -89.6933 191° South  Level Estimated

Login

Don't have an account? Register now (free) for customized features, flight alerts, and more!